createdAt,value
2019-03-09T00:02:27.248Z,91.47
2019-03-09T00:04:56.848Z,92.09
2019-03-09T00:07:26.498Z,92.30
2019-03-09T00:09:55.953Z,92.56
2019-03-09T00:12:25.495Z,92.69
2019-03-09T00:14:54.985Z,92.12
2019-03-09T00:17:24.564Z,92.30
2019-03-09T00:19:54.311Z,91.43
2019-03-09T00:22:23.875Z,91.35
2019-03-09T00:25:30.338Z,91.33
2019-03-09T00:28:10.974Z,91.43
2019-03-09T00:30:48.650Z,91.81
2019-03-09T00:33:18.065Z,92.23
2019-03-09T00:35:47.801Z,92.42
2019-03-09T00:38:17.492Z,92.64
2019-03-09T00:40:46.918Z,92.77
2019-03-09T00:43:16.542Z,92.35
2019-03-09T00:45:46.094Z,92.82
2019-03-09T00:48:15.869Z,93.61
2019-03-09T00:50:46.312Z,93.56
2019-03-09T00:53:15.782Z,93.64
2019-03-09T00:55:45.192Z,93.82
2019-03-09T00:58:14.618Z,94.19
2019-03-09T01:00:44.320Z,93.93
2019-03-09T01:03:13.871Z,94.14
2019-03-09T01:05:46.030Z,94.64
2019-03-09T01:08:15.733Z,94.94
2019-03-09T01:10:49.012Z,94.74
2019-03-09T01:13:18.782Z,94.56
2019-03-09T01:15:48.569Z,94.90
2019-03-09T01:18:18.983Z,95.32
2019-03-09T01:20:48.521Z,95.40
2019-03-09T01:23:18.168Z,95.81
2019-03-09T01:25:47.759Z,95.74
2019-03-09T01:28:17.289Z,96.00
2019-03-09T01:30:46.868Z,96.23
2019-03-09T01:33:16.628Z,95.93
2019-03-09T01:35:46.132Z,96.56
2019-03-09T01:38:16.005Z,96.92
2019-03-09T01:40:45.618Z,97.20
2019-03-09T01:43:15.203Z,96.82
2019-03-09T01:45:44.650Z,97.31
2019-03-09T01:48:14.220Z,97.50
2019-03-09T01:50:43.731Z,97.47
2019-03-09T01:53:13.271Z,97.50
2019-03-09T01:55:42.792Z,97.96
2019-03-09T01:58:12.372Z,97.94
2019-03-09T02:00:41.831Z,98.13
2019-03-09T02:03:11.291Z,97.95
2019-03-09T02:05:40.722Z,98.15
2019-03-09T02:08:10.245Z,98.50
2019-03-09T02:10:39.599Z,98.71
2019-03-09T02:13:09.234Z,98.67
2019-03-09T02:15:38.781Z,98.78
2019-03-09T02:18:08.322Z,99.01
2019-03-09T02:20:37.767Z,98.89
2019-03-09T02:23:07.332Z,99.62
2019-03-09T02:25:36.838Z,99.72
2019-03-09T02:28:06.306Z,99.61
2019-03-09T02:30:35.840Z,99.25
2019-03-09T02:33:05.645Z,99.59
2019-03-09T02:35:35.079Z,99.92
2019-03-09T02:38:26.545Z,100.00
2019-03-09T02:40:58.027Z,100.00
2019-03-09T02:43:27.433Z,100.00
2019-03-09T02:45:56.952Z,100.00
2019-03-09T02:48:26.597Z,100.00
2019-03-09T02:50:56.436Z,100.00
2019-03-09T02:53:27.419Z,100.00
2019-03-09T02:55:57.153Z,100.00
2019-03-09T02:58:26.575Z,100.00
2019-03-09T03:01:10.219Z,100.00
2019-03-09T03:03:39.679Z,100.00
2019-03-09T03:06:09.160Z,100.00
2019-03-09T03:08:38.545Z,100.00
2019-03-09T03:11:08.017Z,100.00
2019-03-09T03:13:37.454Z,100.00
2019-03-09T03:16:06.775Z,100.00
2019-03-09T03:18:36.264Z,100.00
2019-03-09T03:21:05.783Z,100.00
2019-03-09T03:23:35.351Z,100.00
2019-03-09T03:26:04.978Z,100.00
2019-03-09T03:28:34.472Z,100.00
2019-03-09T03:31:04.176Z,100.00
2019-03-09T03:33:33.844Z,100.00
2019-03-09T03:36:03.235Z,100.00
2019-03-09T03:38:32.774Z,100.00
2019-03-09T03:41:02.374Z,100.00
2019-03-09T03:43:31.905Z,100.00
2019-03-09T03:46:01.482Z,100.00
2019-03-09T03:48:30.969Z,100.00
2019-03-09T03:51:00.355Z,100.00
2019-03-09T03:53:29.852Z,100.00
2019-03-09T03:55:59.303Z,100.00
2019-03-09T03:58:28.770Z,100.00
2019-03-09T04:00:58.314Z,100.00
2019-03-09T04:03:27.772Z,100.00
2019-03-09T04:05:57.201Z,100.00
2019-03-09T04:08:27.070Z,100.00
2019-03-09T04:10:56.458Z,100.00
2019-03-09T04:13:25.783Z,100.00
2019-03-09T04:15:55.345Z,100.00
2019-03-09T04:18:24.710Z,100.00
2019-03-09T04:20:54.136Z,100.00
2019-03-09T04:23:23.639Z,100.00
2019-03-09T04:25:53.137Z,100.00
2019-03-09T04:28:22.679Z,100.00
2019-03-09T04:30:52.242Z,100.00
2019-03-09T04:33:21.595Z,100.00
2019-03-09T04:35:51.070Z,100.00
2019-03-09T04:38:20.549Z,100.00
2019-03-09T04:40:50.035Z,100.00
2019-03-09T04:43:19.592Z,100.00
2019-03-09T04:45:48.967Z,100.00
2019-03-09T04:48:18.419Z,100.00
2019-03-09T04:50:47.783Z,100.00
2019-03-09T04:53:17.172Z,100.00
2019-03-09T04:55:46.581Z,99.85
2019-03-09T04:58:15.987Z,99.41
2019-03-09T05:00:45.729Z,99.43
2019-03-09T05:03:15.219Z,98.43
2019-03-09T05:05:44.707Z,98.85
2019-03-09T05:08:38.639Z,97.79
2019-03-09T05:11:14.994Z,97.17
2019-03-09T05:14:14.486Z,97.03
2019-03-09T05:16:43.928Z,95.76
2019-03-09T05:19:13.456Z,95.56
2019-03-09T05:21:42.988Z,95.58
2019-03-09T05:24:12.548Z,94.95
2019-03-09T05:26:42.013Z,94.74
2019-03-09T05:29:11.407Z,94.43
2019-03-09T05:31:40.921Z,94.42
2019-03-09T05:34:10.392Z,94.75
2019-03-09T05:36:39.902Z,94.21
2019-03-09T05:39:09.362Z,94.43
2019-03-09T05:41:38.926Z,94.19
2019-03-09T05:44:08.402Z,93.96
2019-03-09T05:46:37.824Z,94.10
2019-03-09T05:49:07.171Z,94.04
2019-03-09T05:51:36.804Z,93.82
2019-03-09T05:54:06.161Z,94.28
2019-03-09T05:56:35.574Z,94.27
2019-03-09T05:59:05.121Z,94.45
2019-03-09T06:01:34.524Z,94.46
2019-03-09T06:04:03.863Z,94.82
2019-03-09T06:06:33.440Z,95.05
2019-03-09T06:09:02.953Z,94.31
2019-03-09T06:11:33.279Z,93.95
2019-03-09T06:14:02.794Z,92.79
2019-03-09T06:16:32.349Z,92.46
2019-03-09T06:19:01.919Z,92.31
2019-03-09T06:21:31.382Z,92.33
2019-03-09T06:24:00.978Z,92.63
2019-03-09T06:26:30.443Z,92.55
2019-03-09T06:28:59.999Z,91.98
2019-03-09T06:31:29.554Z,92.11
2019-03-09T06:33:59.042Z,91.47
2019-03-09T06:37:05.312Z,91.57
2019-03-09T06:39:46.492Z,92.16
2019-03-09T06:42:51.583Z,91.98
2019-03-09T06:45:21.368Z,92.01
2019-03-09T06:47:50.918Z,91.56
2019-03-09T06:50:21.380Z,92.05
2019-03-09T06:52:50.847Z,92.15
2019-03-09T06:55:20.241Z,91.59
2019-03-09T06:57:49.756Z,91.87
2019-03-09T07:00:41.886Z,91.64
2019-03-09T07:03:11.936Z,91.81
2019-03-09T07:05:41.431Z,91.65
2019-03-09T07:08:11.047Z,91.96
2019-03-09T07:10:40.408Z,90.37
2019-03-09T07:13:09.907Z,90.78
2019-03-09T07:15:41.581Z,91.12
2019-03-09T07:18:21.845Z,90.99
2019-03-09T07:20:51.326Z,91.35
2019-03-09T07:23:20.877Z,91.43
2019-03-09T07:25:50.316Z,90.24
2019-03-09T07:28:19.727Z,89.82
2019-03-09T07:30:49.145Z,89.45
2019-03-09T07:33:18.693Z,88.47
2019-03-09T07:35:48.260Z,88.37
2019-03-09T07:38:17.935Z,87.75
2019-03-09T07:40:47.580Z,88.34
2019-03-09T07:43:17.090Z,88.27
2019-03-09T07:45:46.610Z,87.72
2019-03-09T07:48:16.084Z,85.60
2019-03-09T07:50:45.485Z,84.87
2019-03-09T07:53:14.976Z,83.45
2019-03-09T07:55:44.490Z,83.17
2019-03-09T07:58:14.113Z,82.76
2019-03-09T08:00:43.523Z,82.41
2019-03-09T08:03:13.505Z,81.74
2019-03-09T08:05:43.066Z,82.06
2019-03-09T08:08:12.636Z,83.37
2019-03-09T08:10:42.229Z,82.61
2019-03-09T08:13:11.816Z,83.91
2019-03-09T08:15:41.342Z,83.06
2019-03-09T08:18:10.829Z,82.69
2019-03-09T08:20:40.371Z,82.28
2019-03-09T08:23:09.789Z,81.71
2019-03-09T08:25:39.216Z,81.46
2019-03-09T08:28:08.761Z,80.12
2019-03-09T08:30:38.310Z,80.75
2019-03-09T08:33:07.883Z,79.15
2019-03-09T08:35:37.434Z,79.95
2019-03-09T08:38:06.980Z,80.83
2019-03-09T08:40:36.546Z,80.83
2019-03-09T08:43:06.175Z,79.46
2019-03-09T08:45:35.742Z,79.56
2019-03-09T08:48:05.272Z,79.14
2019-03-09T08:50:34.899Z,78.93
2019-03-09T08:53:04.365Z,78.39
2019-03-09T08:55:33.810Z,77.75
2019-03-09T08:58:03.338Z,78.71
2019-03-09T09:00:33.535Z,78.46
2019-03-09T09:03:03.199Z,78.74
2019-03-09T09:05:32.628Z,78.63
2019-03-09T09:08:03.816Z,77.97
2019-03-09T09:10:33.577Z,77.91
2019-03-09T09:13:03.065Z,77.24
2019-03-09T09:15:32.508Z,77.03
2019-03-09T09:18:01.924Z,77.38
2019-03-09T09:20:31.475Z,76.43
2019-03-09T09:23:00.849Z,76.11
2019-03-09T09:25:30.449Z,76.71
2019-03-09T09:28:00.021Z,75.96
2019-03-09T09:30:29.579Z,75.90
2019-03-09T09:32:59.147Z,75.04
2019-03-09T09:35:32.747Z,74.87
2019-03-09T09:38:02.431Z,74.20
2019-03-09T09:40:31.907Z,74.55
2019-03-09T09:43:01.542Z,74.50
2019-03-09T09:45:30.965Z,75.77
2019-03-09T09:48:00.482Z,75.67
2019-03-09T09:50:30.041Z,75.62
2019-03-09T09:52:59.655Z,75.07
2019-03-09T09:55:29.876Z,76.04
2019-03-09T09:58:03.106Z,74.93
2019-03-09T10:00:32.712Z,75.49
2019-03-09T10:03:02.123Z,76.54
2019-03-09T10:05:31.746Z,72.83
2019-03-09T10:08:01.246Z,73.71
2019-03-09T10:10:30.733Z,74.53
2019-03-09T10:13:00.288Z,74.75
2019-03-09T10:15:30.029Z,75.69
2019-03-09T10:17:59.585Z,73.92
2019-03-09T10:20:29.120Z,73.55
2019-03-09T10:23:04.207Z,73.26
2019-03-09T10:25:29.798Z,73.92
2019-03-09T10:27:59.393Z,73.84
2019-03-09T10:30:28.998Z,73.10
2019-03-09T10:32:58.620Z,73.50
2019-03-09T10:35:28.161Z,73.21
2019-03-09T10:37:57.576Z,74.05
2019-03-09T10:40:27.172Z,71.29
2019-03-09T10:42:56.671Z,72.05
2019-03-09T10:45:26.133Z,72.57
2019-03-09T10:47:55.641Z,72.09
2019-03-09T10:50:26.091Z,71.62
2019-03-09T10:52:55.661Z,71.48
2019-03-09T10:55:25.075Z,70.03
2019-03-09T10:57:54.786Z,69.49
2019-03-09T11:00:29.635Z,70.62
2019-03-09T11:02:59.181Z,70.45
2019-03-09T11:05:28.685Z,69.71
2019-03-09T11:07:58.160Z,69.65
2019-03-09T11:10:27.700Z,69.27
2019-03-09T11:12:57.379Z,70.31
2019-03-09T11:15:26.792Z,70.90
2019-03-09T11:17:56.402Z,70.48
2019-03-09T11:20:25.893Z,69.80
2019-03-09T11:22:55.390Z,68.43
2019-03-09T11:25:24.925Z,67.35
2019-03-09T11:27:54.521Z,68.66
2019-03-09T11:30:25.217Z,67.70
2019-03-09T11:32:54.805Z,67.20
2019-03-09T11:35:24.568Z,66.51
2019-03-09T11:37:54.086Z,67.16
2019-03-09T11:40:23.652Z,66.79
2019-03-09T11:42:53.199Z,65.69
2019-03-09T11:45:22.774Z,66.73
2019-03-09T11:47:52.389Z,66.00
2019-03-09T11:50:21.981Z,66.57
2019-03-09T11:52:51.667Z,67.65
2019-03-09T11:55:21.197Z,67.55
2019-03-09T11:57:52.696Z,67.40
2019-03-09T12:00:26.025Z,68.62
2019-03-09T12:02:55.597Z,68.25
2019-03-09T12:05:25.196Z,68.60
2019-03-09T12:07:54.755Z,68.75
2019-03-09T12:10:24.260Z,68.55
2019-03-09T12:12:54.028Z,68.01
2019-03-09T12:15:23.779Z,68.59
2019-03-09T12:17:53.354Z,67.36
2019-03-09T12:20:24.959Z,66.92
2019-03-09T12:23:01.012Z,66.11
2019-03-09T12:25:26.182Z,65.97
2019-03-09T12:27:55.752Z,66.54
2019-03-09T12:30:25.337Z,66.60
2019-03-09T12:32:54.889Z,65.67
2019-03-09T12:35:24.402Z,64.36
2019-03-09T12:37:53.942Z,65.05
2019-03-09T12:40:23.358Z,64.36
2019-03-09T12:42:52.959Z,65.83
2019-03-09T12:45:22.609Z,63.79
2019-03-09T12:47:52.363Z,64.62
2019-03-09T12:50:22.248Z,64.07
2019-03-09T12:52:51.887Z,65.09
2019-03-09T12:55:21.433Z,65.05
2019-03-09T12:57:51.077Z,65.15
2019-03-09T13:00:20.857Z,60.71
2019-03-09T13:02:50.359Z,62.07
2019-03-09T13:05:20.068Z,63.28
2019-03-09T13:07:49.661Z,65.04
2019-03-09T13:10:19.276Z,61.86
2019-03-09T13:12:49.035Z,63.81
2019-03-09T13:15:18.834Z,63.49
2019-03-09T13:17:48.498Z,64.21
2019-03-09T13:20:18.240Z,63.82
2019-03-09T13:22:47.878Z,63.24
2019-03-09T13:25:17.365Z,65.10
2019-03-09T13:27:46.881Z,66.45
2019-03-09T13:30:18.088Z,66.51
2019-03-09T13:32:47.772Z,66.04
2019-03-09T13:35:17.595Z,69.44
2019-03-09T13:37:47.272Z,72.74
2019-03-09T13:40:17.227Z,76.67
2019-03-09T13:42:46.983Z,78.24
2019-03-09T13:45:16.774Z,79.39
2019-03-09T13:47:46.709Z,82.98
2019-03-09T13:50:16.167Z,86.04
2019-03-09T13:52:45.815Z,86.45
2019-03-09T13:55:15.623Z,84.61
2019-03-09T13:57:45.430Z,86.36
2019-03-09T14:00:15.795Z,87.14
2019-03-09T14:02:45.599Z,87.25
2019-03-09T14:05:15.455Z,83.48
2019-03-09T14:07:45.334Z,78.63
2019-03-09T14:10:16.062Z,72.37
2019-03-09T14:12:45.802Z,69.37
2019-03-09T14:15:15.733Z,67.30
2019-03-09T14:17:45.386Z,66.36
2019-03-09T14:20:15.399Z,61.29
2019-03-09T14:22:45.268Z,61.53
2019-03-09T14:25:15.206Z,63.46
2019-03-09T14:27:45.210Z,64.26
2019-03-09T14:30:15.578Z,62.54
2019-03-09T14:32:45.446Z,64.26
2019-03-09T14:35:15.541Z,67.36
2019-03-09T14:37:45.435Z,71.05
2019-03-09T14:40:15.578Z,73.40
2019-03-09T14:42:45.347Z,74.58
2019-03-09T14:45:16.492Z,74.96
2019-03-09T14:47:46.257Z,77.15
2019-03-09T14:50:16.338Z,79.60
2019-03-09T14:52:46.110Z,78.15
2019-03-09T14:55:15.980Z,78.77
2019-03-09T14:57:45.833Z,78.77
2019-03-09T15:00:18.057Z,78.52
2019-03-09T15:02:47.870Z,81.87
2019-03-09T15:05:17.765Z,86.85
2019-03-09T15:07:47.631Z,86.94
2019-03-09T15:10:17.701Z,85.70
2019-03-09T15:12:47.423Z,87.97
2019-03-09T15:15:17.390Z,88.70
2019-03-09T15:17:47.122Z,90.37
2019-03-09T15:20:17.443Z,91.42
2019-03-09T15:22:47.382Z,93.14
2019-03-09T15:25:17.213Z,94.78
2019-03-09T15:27:46.967Z,94.90
2019-03-09T15:30:17.030Z,93.08
2019-03-09T15:32:47.056Z,92.01
2019-03-09T15:35:17.489Z,91.05
2019-03-09T15:37:47.268Z,92.14
2019-03-09T15:40:17.633Z,92.96
2019-03-09T15:42:47.628Z,92.34
2019-03-09T15:45:17.981Z,93.33
2019-03-09T15:47:48.049Z,92.18
2019-03-09T15:50:18.055Z,92.88
2019-03-09T15:52:47.980Z,92.98
2019-03-09T15:55:18.144Z,91.71
2019-03-09T15:57:48.205Z,91.63
2019-03-09T16:00:19.040Z,91.48
2019-03-09T16:02:49.117Z,91.66
2019-03-09T16:05:19.200Z,92.87
2019-03-09T16:07:49.090Z,93.55
2019-03-09T16:10:19.059Z,92.34
2019-03-09T16:12:48.920Z,87.63
2019-03-09T16:15:18.918Z,83.98
2019-03-09T16:17:48.843Z,82.94
2019-03-09T16:20:18.713Z,80.13
2019-03-09T16:22:49.553Z,79.14
2019-03-09T16:25:19.632Z,79.75
2019-03-09T16:27:49.496Z,80.68
2019-03-09T16:30:19.732Z,81.36
2019-03-09T16:32:49.758Z,77.77
2019-03-09T16:35:19.846Z,76.83
2019-03-09T16:37:49.800Z,76.76
2019-03-09T16:40:19.694Z,76.86
2019-03-09T16:42:49.812Z,77.16
2019-03-09T16:45:19.882Z,77.93
2019-03-09T16:47:50.276Z,78.54
2019-03-09T16:50:20.415Z,78.68
2019-03-09T16:52:50.304Z,77.86
2019-03-09T16:55:20.171Z,78.07
2019-03-09T16:57:50.130Z,77.03
2019-03-09T17:00:20.479Z,76.33
2019-03-09T17:02:50.591Z,76.29
2019-03-09T17:05:20.482Z,75.82
2019-03-09T17:07:50.724Z,76.18
2019-03-09T17:10:20.720Z,75.40
2019-03-09T17:12:50.554Z,75.85
2019-03-09T17:15:21.342Z,75.12
2019-03-09T17:17:51.377Z,75.20
2019-03-09T17:20:21.427Z,74.13
2019-03-09T17:22:51.405Z,74.22
2019-03-09T17:25:21.510Z,74.69
2019-03-09T17:27:51.571Z,73.97
2019-03-09T17:30:21.583Z,73.98
2019-03-09T17:32:51.400Z,74.53
2019-03-09T17:35:21.362Z,74.18
2019-03-09T17:37:51.220Z,74.05
2019-03-09T17:40:25.089Z,73.32
2019-03-09T17:42:56.122Z,72.95
2019-03-09T17:45:26.201Z,72.50
2019-03-09T17:47:56.332Z,73.26
2019-03-09T17:50:26.134Z,73.20
2019-03-09T17:52:56.054Z,73.30
2019-03-09T17:55:25.951Z,73.07
2019-03-09T17:57:55.827Z,72.93
2019-03-09T18:00:26.269Z,73.06
2019-03-09T18:02:56.203Z,73.35
2019-03-09T18:05:26.308Z,73.17
2019-03-09T18:07:56.140Z,74.37
2019-03-09T18:10:39.512Z,73.75
2019-03-09T18:13:10.085Z,74.71
2019-03-09T18:15:40.102Z,74.79
2019-03-09T18:18:10.110Z,74.67
2019-03-09T18:20:40.521Z,74.81
2019-03-09T18:23:10.383Z,74.90
2019-03-09T18:25:40.487Z,75.31
2019-03-09T18:28:10.442Z,74.86
2019-03-09T18:30:41.279Z,73.76
2019-03-09T18:33:11.233Z,73.47
2019-03-09T18:35:41.954Z,73.75
2019-03-09T18:38:12.007Z,74.74
2019-03-09T18:40:41.918Z,74.88
2019-03-09T18:43:11.980Z,75.67
2019-03-09T18:45:42.868Z,76.49
2019-03-09T18:48:12.742Z,76.65
2019-03-09T18:50:43.711Z,77.20
2019-03-09T18:53:15.976Z,78.15
2019-03-09T18:55:46.739Z,78.41
2019-03-09T18:58:18.171Z,79.12
2019-03-09T19:00:48.206Z,79.29
2019-03-09T19:03:20.974Z,79.90
2019-03-09T19:05:50.794Z,80.26
2019-03-09T19:08:20.754Z,80.32
2019-03-09T19:10:50.799Z,79.82
2019-03-09T19:13:20.890Z,79.02
2019-03-09T19:15:50.770Z,79.38
2019-03-09T19:18:20.713Z,79.53
2019-03-09T19:20:50.751Z,79.35
2019-03-09T19:23:20.745Z,79.77
2019-03-09T19:25:50.593Z,79.78
2019-03-09T19:28:20.505Z,79.68
2019-03-09T19:30:50.321Z,79.41
2019-03-09T19:33:20.147Z,79.42
2019-03-09T19:35:50.308Z,78.73
2019-03-09T19:38:22.160Z,79.22
2019-03-09T19:40:53.008Z,78.25
2019-03-09T19:43:22.844Z,78.01
2019-03-09T19:45:52.651Z,78.52
2019-03-09T19:48:22.606Z,78.18
2019-03-09T19:50:52.316Z,78.44
2019-03-09T19:53:22.742Z,78.52
2019-03-09T19:55:52.719Z,78.18
2019-03-09T19:58:22.646Z,77.54
2019-03-09T20:00:52.990Z,77.50
2019-03-09T20:03:40.491Z,77.50
2019-03-09T20:06:10.722Z,77.86
2019-03-09T20:08:40.911Z,78.06
2019-03-09T20:11:11.238Z,77.60
2019-03-09T20:13:42.032Z,78.19
2019-03-09T20:16:12.859Z,78.17
2019-03-09T20:18:42.748Z,78.48
2019-03-09T20:21:12.897Z,78.52
2019-03-09T20:23:42.765Z,78.37
2019-03-09T20:26:12.876Z,78.91
2019-03-09T20:28:42.726Z,79.34
2019-03-09T20:31:12.751Z,79.95
2019-03-09T20:33:42.618Z,80.18
2019-03-09T20:36:22.369Z,80.55
2019-03-09T20:38:52.253Z,80.76
2019-03-09T20:41:36.195Z,81.30
2019-03-09T20:44:25.946Z,81.07
2019-03-09T20:46:56.027Z,80.34
2019-03-09T20:49:26.048Z,79.85
2019-03-09T20:51:55.968Z,79.60
2019-03-09T20:54:26.292Z,79.90
2019-03-09T20:56:56.291Z,79.59
2019-03-09T20:59:26.125Z,79.53
2019-03-09T21:01:56.362Z,79.54
2019-03-09T21:04:27.410Z,79.67
2019-03-09T21:06:57.240Z,79.20
2019-03-09T21:09:37.422Z,78.53
2019-03-09T21:12:11.164Z,78.45
2019-03-09T21:14:41.087Z,79.02
2019-03-09T21:17:11.201Z,78.68
2019-03-09T21:19:41.000Z,79.86
2019-03-09T21:22:10.942Z,80.82
2019-03-09T21:24:41.158Z,82.58
2019-03-09T21:27:10.965Z,82.59
2019-03-09T21:29:40.894Z,83.39
2019-03-09T21:32:10.772Z,82.76
2019-03-09T21:34:40.447Z,82.88
2019-03-09T21:37:10.190Z,83.13
2019-03-09T21:39:40.101Z,83.87
2019-03-09T21:42:09.964Z,83.67
2019-03-09T21:44:39.746Z,83.45
2019-03-09T21:47:09.462Z,83.33
2019-03-09T21:49:39.272Z,82.75
2019-03-09T21:52:09.093Z,82.93
2019-03-09T21:54:38.923Z,81.95
2019-03-09T21:57:08.736Z,82.26
2019-03-09T21:59:38.415Z,82.40
2019-03-09T22:02:08.908Z,82.26
2019-03-09T22:04:38.740Z,82.03
2019-03-09T22:07:08.418Z,82.39
2019-03-09T22:09:39.603Z,81.88
2019-03-09T22:12:09.276Z,81.88
2019-03-09T22:14:40.140Z,81.18
2019-03-09T22:17:09.778Z,81.02
2019-03-09T22:19:39.438Z,80.68
2019-03-09T22:22:10.443Z,79.40
2019-03-09T22:25:02.554Z,78.90
2019-03-09T22:27:33.300Z,78.26
2019-03-09T22:30:06.832Z,78.28
2019-03-09T22:32:38.679Z,77.37
2019-03-09T22:35:11.144Z,77.39
2019-03-09T22:37:44.623Z,77.71
2019-03-09T22:40:14.521Z,76.83
2019-03-09T22:42:45.198Z,77.72
2019-03-09T22:45:16.329Z,77.95
2019-03-09T22:47:45.912Z,77.92
2019-03-09T22:50:16.108Z,78.29
2019-03-09T22:52:45.720Z,78.15
2019-03-09T22:55:15.298Z,78.76
2019-03-09T22:57:45.038Z,77.95
2019-03-09T23:00:16.820Z,78.15
2019-03-09T23:02:52.559Z,77.84
2019-03-09T23:05:22.028Z,76.60
2019-03-09T23:08:10.573Z,77.15
2019-03-09T23:10:42.263Z,77.25
2019-03-09T23:13:14.500Z,77.25
2019-03-09T23:15:52.381Z,76.93
2019-03-09T23:19:10.747Z,77.07
2019-03-09T23:21:40.819Z,77.12
2019-03-09T23:24:22.112Z,76.96
2019-03-09T23:26:54.823Z,77.25
2019-03-09T23:29:30.981Z,77.71
2019-03-09T23:32:01.455Z,77.59
2019-03-09T23:34:32.853Z,77.18
2019-03-09T23:37:03.556Z,77.57
2019-03-09T23:39:34.321Z,77.72
2019-03-09T23:42:06.753Z,77.15
2019-03-09T23:44:36.284Z,77.54
2019-03-09T23:47:14.166Z,78.10
2019-03-09T23:49:43.136Z,78.09
2019-03-09T23:52:13.509Z,78.09
2019-03-09T23:54:43.123Z,78.60
2019-03-09T23:57:13.558Z,78.26
2019-03-09T23:59:45.362Z,78.46
